sensor_id;sensor_type;location;lat;lon;timestamp;pressure;altitude;pressure_sealevel;temperature;humidity
35704;BME280;21820;51.112;13.762;2023-09-18T00:00:20;99204.66;;;23.33;58.54
35704;BME280;21820;51.112;13.762;2023-09-18T00:02:47;99203.16;;;23.31;59.23
35704;BME280;21820;51.112;13.762;2023-09-18T00:05:12;99202.03;;;23.33;59.58
35704;BME280;21820;51.112;13.762;2023-09-18T00:07:44;99207.09;;;23.35;59.35
35704;BME280;21820;51.112;13.762;2023-09-18T00:10:11;99208.22;;;23.32;58.68
35704;BME280;21820;51.112;13.762;2023-09-18T00:12:36;99196.63;;;23.35;58.27
35704;BME280;21820;51.112;13.762;2023-09-18T00:15:02;99189.56;;;23.35;58.88
35704;BME280;21820;51.112;13.762;2023-09-18T00:17:28;99192.19;;;23.35;59.43
35704;BME280;21820;51.112;13.762;2023-09-18T00:19:53;99173.28;;;23.23;58.34
35704;BME280;21820;51.112;13.762;2023-09-18T00:22:19;99189.72;;;23.34;58.87
35704;BME280;21820;51.112;13.762;2023-09-18T00:24:44;99190.53;;;23.34;58.48
35704;BME280;21820;51.112;13.762;2023-09-18T00:27:10;99184.16;;;23.37;58.76
35704;BME280;21820;51.112;13.762;2023-09-18T00:29:36;99181.38;;;23.38;58.74
35704;BME280;21820;51.112;13.762;2023-09-18T00:32:02;99181.53;;;23.37;58.70
35704;BME280;21820;51.112;13.762;2023-09-18T00:34:28;99184.31;;;23.35;59.28
35704;BME280;21820;51.112;13.762;2023-09-18T00:36:54;99178.41;;;23.33;58.84
35704;BME280;21820;51.112;13.762;2023-09-18T00:39:19;99177.59;;;23.33;59.38
35704;BME280;21820;51.112;13.762;2023-09-18T00:41:45;99176.75;;;23.32;59.04
35704;BME280;21820;51.112;13.762;2023-09-18T00:44:14;99175.63;;;23.35;58.44
35704;BME280;21820;51.112;13.762;2023-09-18T00:46:39;99169.56;;;23.34;58.74
35704;BME280;21820;51.112;13.762;2023-09-18T00:49:05;99149.84;;;23.22;59.02
35704;BME280;21820;51.112;13.762;2023-09-18T00:51:30;99167.91;;;23.33;59.08
35704;BME280;21820;51.112;13.762;2023-09-18T00:53:56;99161.50;;;23.36;58.63
35704;BME280;21820;51.112;13.762;2023-09-18T00:56:21;99157.94;;;23.37;58.11
35704;BME280;21820;51.112;13.762;2023-09-18T00:58:47;99154.75;;;23.25;58.56
35704;BME280;21820;51.112;13.762;2023-09-18T01:01:12;99161.50;;;23.36;58.98
35704;BME280;21820;51.112;13.762;2023-09-18T01:03:39;99137.06;;;23.27;58.26
35704;BME280;21820;51.112;13.762;2023-09-18T01:06:05;99152.69;;;23.37;59.11
35704;BME280;21820;51.112;13.762;2023-09-18T01:08:30;99145.78;;;23.36;59.58
35704;BME280;21820;51.112;13.762;2023-09-18T01:16:34;99121.78;;;23.22;59.84
35704;BME280;21820;51.112;13.762;2023-09-18T01:19:01;99129.41;;;23.34;58.99
35704;BME280;21820;51.112;13.762;2023-09-18T01:21:28;99125.94;;;23.33;58.50
35704;BME280;21820;51.112;13.762;2023-09-18T01:23:54;99125.13;;;23.33;58.83
35704;BME280;21820;51.112;13.762;2023-09-18T01:26:19;99124.00;;;23.35;59.36
35704;BME280;21820;51.112;13.762;2023-09-18T01:28:44;99121.38;;;23.35;59.84
35704;BME280;21820;51.112;13.762;2023-09-18T01:31:10;99113.50;;;23.35;58.90
35704;BME280;21820;51.112;13.762;2023-09-18T01:33:36;99109.88;;;23.36;59.87
35704;BME280;21820;51.112;13.762;2023-09-18T01:36:02;99116.47;;;23.40;59.98
35704;BME280;21820;51.112;13.762;2023-09-18T01:38:28;99115.28;;;23.35;59.07
35704;BME280;21820;51.112;13.762;2023-09-18T01:40:54;99120.69;;;23.33;59.00
35704;BME280;21820;51.112;13.762;2023-09-18T01:43:20;99103.81;;;23.36;59.62
35704;BME280;21820;51.112;13.762;2023-09-18T01:45:45;99097.75;;;23.35;59.94
35704;BME280;21820;51.112;13.762;2023-09-18T01:48:11;99097.75;;;23.35;58.89
35704;BME280;21820;51.112;13.762;2023-09-18T01:50:37;99089.22;;;23.33;59.05
35704;BME280;21820;51.112;13.762;2023-09-18T01:53:02;99086.28;;;23.36;59.28
35704;BME280;21820;51.112;13.762;2023-09-18T01:55:28;99080.34;;;23.34;59.62
35704;BME280;21820;51.112;13.762;2023-09-18T01:57:55;99081.53;;;23.32;60.31
35704;BME280;21820;51.112;13.762;2023-09-18T02:00:21;99088.56;;;23.31;59.65
35704;BME280;21820;51.112;13.762;2023-09-18T02:02:46;99089.22;;;23.33;58.96
35704;BME280;21820;51.112;13.762;2023-09-18T02:05:12;99090.84;;;23.34;59.47
35704;BME280;21820;51.112;13.762;2023-09-18T02:07:37;99088.41;;;23.33;59.78
35704;BME280;21820;51.112;13.762;2023-09-18T02:10:03;99065.75;;;23.23;59.16
35704;BME280;21820;51.112;13.762;2023-09-18T02:12:28;99081.19;;;23.35;60.02
35704;BME280;21820;51.112;13.762;2023-09-18T02:14:54;99082.97;;;23.34;59.51
35704;BME280;21820;51.112;13.762;2023-09-18T02:17:22;99074.16;;;23.35;59.06
35704;BME280;21820;51.112;13.762;2023-09-18T02:19:47;99077.28;;;23.39;59.24
35704;BME280;21820;51.112;13.762;2023-09-18T02:22:13;99084.31;;;23.38;59.86
35704;BME280;21820;51.112;13.762;2023-09-18T02:24:38;99078.06;;;23.39;59.22
35704;BME280;21820;51.112;13.762;2023-09-18T02:27:04;99072.81;;;23.39;59.63
35704;BME280;21820;51.112;13.762;2023-09-18T02:29:30;99057.56;;;23.43;60.93
35704;BME280;21820;51.112;13.762;2023-09-18T02:31:55;99062.50;;;23.38;59.81
35704;BME280;21820;51.112;13.762;2023-09-18T02:34:21;99062.50;;;23.38;59.10
35704;BME280;21820;51.112;13.762;2023-09-18T02:36:46;99055.44;;;23.38;59.53
35704;BME280;21820;51.112;13.762;2023-09-18T02:39:12;99056.28;;;23.39;59.86
35704;BME280;21820;51.112;13.762;2023-09-18T02:41:38;99060.88;;;23.37;58.60
35704;BME280;21820;51.112;13.762;2023-09-18T02:44:03;99051.16;;;23.37;59.63
35704;BME280;21820;51.112;13.762;2023-09-18T02:46:29;99050.22;;;23.38;59.81
35704;BME280;21820;51.112;13.762;2023-09-18T02:48:55;99043.00;;;23.40;58.68
35704;BME280;21820;51.112;13.762;2023-09-18T02:51:20;99038.72;;;23.39;59.33
35704;BME280;21820;51.112;13.762;2023-09-18T02:53:45;99039.72;;;23.38;58.90
35704;BME280;21820;51.112;13.762;2023-09-18T02:56:11;99039.06;;;23.36;59.12
35704;BME280;21820;51.112;13.762;2023-09-18T02:58:36;99030.34;;;23.36;59.42
35704;BME280;21820;51.112;13.762;2023-09-18T03:01:01;99032.81;;;23.37;59.93
35704;BME280;21820;51.112;13.762;2023-09-18T03:03:29;99025.94;;;23.36;59.92
35704;BME280;21820;51.112;13.762;2023-09-18T03:06:00;99024.31;;;23.35;60.85
35704;BME280;21820;51.112;13.762;2023-09-18T03:08:27;99024.94;;;23.37;58.77
35704;BME280;21820;51.112;13.762;2023-09-18T03:10:52;99031.84;;;23.38;59.12
35704;BME280;21820;51.112;13.762;2023-09-18T03:13:17;99029.22;;;23.38;58.99
35704;BME280;21820;51.112;13.762;2023-09-18T03:15:46;99034.47;;;23.38;60.57
35704;BME280;21820;51.112;13.762;2023-09-18T03:18:14;99046.59;;;23.39;58.88
35704;BME280;21820;51.112;13.762;2023-09-18T03:20:40;99038.72;;;23.39;58.70
35704;BME280;21820;51.112;13.762;2023-09-18T03:23:05;99036.09;;;23.39;59.19
35704;BME280;21820;51.112;13.762;2023-09-18T03:25:31;99036.59;;;23.35;59.89
35704;BME280;21820;51.112;13.762;2023-09-18T03:27:57;99015.75;;;23.25;59.64
35704;BME280;21820;51.112;13.762;2023-09-18T03:30:23;99031.19;;;23.36;59.56
35704;BME280;21820;51.112;13.762;2023-09-18T03:32:50;99029.38;;;23.37;59.99
35704;BME280;21820;51.112;13.762;2023-09-18T03:35:16;99014.63;;;23.36;59.42
35704;BME280;21820;51.112;13.762;2023-09-18T03:37:52;99014.44;;;23.37;59.65
35704;BME280;21820;51.112;13.762;2023-09-18T03:40:19;99002.31;;;23.36;59.03
35704;BME280;21820;51.112;13.762;2023-09-18T03:42:46;98992.84;;;23.35;60.19
35704;BME280;21820;51.112;13.762;2023-09-18T03:45:12;98998.72;;;23.37;59.88
35704;BME280;21820;51.112;13.762;2023-09-18T03:47:39;98981.34;;;23.28;59.63
35704;BME280;21820;51.112;13.762;2023-09-18T03:50:06;98990.22;;;23.35;60.11
35704;BME280;21820;51.112;13.762;2023-09-18T03:52:32;98992.50;;;23.38;59.74
35704;BME280;21820;51.112;13.762;2023-09-18T03:54:57;98994.47;;;23.36;59.26
35704;BME280;21820;51.112;13.762;2023-09-18T03:57:23;98981.84;;;23.32;59.63
35704;BME280;21820;51.112;13.762;2023-09-18T03:59:48;98997.75;;;23.38;60.15
35704;BME280;21820;51.112;13.762;2023-09-18T04:02:14;98986.75;;;23.35;59.77
35704;BME280;21820;51.112;13.762;2023-09-18T04:04:39;98986.25;;;23.39;58.89
35704;BME280;21820;51.112;13.762;2023-09-18T04:07:08;98992.50;;;23.38;59.41
35704;BME280;21820;51.112;13.762;2023-09-18T04:09:33;98987.25;;;23.38;59.32
35704;BME280;21820;51.112;13.762;2023-09-18T04:12:02;98990.84;;;23.37;59.76
35704;BME280;21820;51.112;13.762;2023-09-18T04:14:30;98982.84;;;23.39;59.42
35704;BME280;21820;51.112;13.762;2023-09-18T04:16:55;98965.44;;;23.30;58.99
35704;BME280;21820;51.112;13.762;2023-09-18T04:19:21;98982.00;;;23.38;60.03
35704;BME280;21820;51.112;13.762;2023-09-18T04:21:46;98951.81;;;23.26;59.29
35704;BME280;21820;51.112;13.762;2023-09-18T04:24:13;98969.84;;;23.37;60.13
35704;BME280;21820;51.112;13.762;2023-09-18T04:26:38;98961.69;;;23.40;59.25
35704;BME280;21820;51.112;13.762;2023-09-18T04:29:04;98961.69;;;23.40;59.09
35704;BME280;21820;51.112;13.762;2023-09-18T04:31:30;98947.91;;;23.30;59.33
35704;BME280;21820;51.112;13.762;2023-09-18T04:33:56;98966.91;;;23.40;59.10
35704;BME280;21820;51.112;13.762;2023-09-18T04:36:21;98960.84;;;23.40;59.52
35704;BME280;21820;51.112;13.762;2023-09-18T04:38:47;98965.91;;;23.41;58.84
35704;BME280;21820;51.112;13.762;2023-09-18T04:41:13;98959.06;;;23.40;58.81
35704;BME280;21820;51.112;13.762;2023-09-18T04:43:40;98949.69;;;23.38;59.57
35704;BME280;21820;51.112;13.762;2023-09-18T04:46:05;98949.88;;;23.36;59.44
35704;BME280;21820;51.112;13.762;2023-09-18T04:48:31;98952.47;;;23.36;59.51
35704;BME280;21820;51.112;13.762;2023-09-18T04:51:00;98930.81;;;23.26;60.36
35704;BME280;21820;51.112;13.762;2023-09-18T04:53:30;98943.63;;;23.37;59.37
35704;BME280;21820;51.112;13.762;2023-09-18T04:55:55;98938.53;;;23.36;58.96
35704;BME280;21820;51.112;13.762;2023-09-18T04:58:21;98940.84;;;23.39;59.25
35704;BME280;21820;51.112;13.762;2023-09-18T05:00:53;98943.31;;;23.40;59.05
35704;BME280;21820;51.112;13.762;2023-09-18T05:03:18;98944.28;;;23.39;59.99
35704;BME280;21820;51.112;13.762;2023-09-18T05:05:43;98915.09;;;23.26;60.24
35704;BME280;21820;51.112;13.762;2023-09-18T05:08:09;98933.13;;;23.37;60.10
35704;BME280;21820;51.112;13.762;2023-09-18T05:10:35;98911.50;;;23.27;59.10
35704;BME280;21820;51.112;13.762;2023-09-18T05:13:00;98927.88;;;23.37;59.44
35704;BME280;21820;51.112;13.762;2023-09-18T05:15:26;98924.28;;;23.38;59.93
35704;BME280;21820;51.112;13.762;2023-09-18T05:17:52;98921.66;;;23.38;58.98
35704;BME280;21820;51.112;13.762;2023-09-18T05:20:21;98932.00;;;23.40;59.88
35704;BME280;21820;51.112;13.762;2023-09-18T05:22:50;98927.56;;;23.40;59.65
35704;BME280;21820;51.112;13.762;2023-09-18T05:25:17;98922.63;;;23.37;60.48
35704;BME280;21820;51.112;13.762;2023-09-18T05:27:43;98913.78;;;23.38;59.92
35704;BME280;21820;51.112;13.762;2023-09-18T05:30:14;98909.19;;;23.32;59.17
35704;BME280;21820;51.112;13.762;2023-09-18T05:32:41;98918.69;;;23.41;59.32
35704;BME280;21820;51.112;13.762;2023-09-18T05:35:07;98918.69;;;23.41;59.01
35704;BME280;21820;51.112;13.762;2023-09-18T05:37:36;98914.75;;;23.37;59.88
35704;BME280;21820;51.112;13.762;2023-09-18T05:40:03;98910.03;;;23.33;59.37
35704;BME280;21820;51.112;13.762;2023-09-18T05:42:30;98889.88;;;23.17;59.49
35704;BME280;21820;51.112;13.762;2023-09-18T05:44:56;98909.19;;;23.32;58.60
35704;BME280;21820;51.112;13.762;2023-09-18T05:47:21;98916.09;;;23.33;59.34
35704;BME280;21820;51.112;13.762;2023-09-18T05:49:48;98916.44;;;23.30;59.76
35704;BME280;21820;51.112;13.762;2023-09-18T05:52:13;98923.97;;;23.33;59.15
35704;BME280;21820;51.112;13.762;2023-09-18T05:54:38;98914.13;;;23.35;59.26
35704;BME280;21820;51.112;13.762;2023-09-18T05:57:04;98914.63;;;23.31;58.83
35704;BME280;21820;51.112;13.762;2023-09-18T05:59:29;98909.53;;;23.29;59.57
35704;BME280;21820;51.112;13.762;2023-09-18T06:01:54;98898.88;;;23.31;59.52
35704;BME280;21820;51.112;13.762;2023-09-18T06:04:20;98905.59;;;23.33;59.01
35704;BME280;21820;51.112;13.762;2023-09-18T06:06:45;98878.06;;;23.21;58.68
35704;BME280;21820;51.112;13.762;2023-09-18T06:09:11;98892.66;;;23.32;59.13
35704;BME280;21820;51.112;13.762;2023-09-18T06:11:36;98896.09;;;23.32;59.12
35704;BME280;21820;51.112;13.762;2023-09-18T06:14:02;98890.84;;;23.32;59.22
35704;BME280;21820;51.112;13.762;2023-09-18T06:16:27;98881.19;;;23.33;59.71
35704;BME280;21820;51.112;13.762;2023-09-18T06:18:53;98878.56;;;23.33;58.66
35704;BME280;21820;51.112;13.762;2023-09-18T06:21:21;98876.09;;;23.31;58.51
35704;BME280;21820;51.112;13.762;2023-09-18T06:23:46;98865.94;;;23.28;59.93
35704;BME280;21820;51.112;13.762;2023-09-18T06:26:11;98865.94;;;23.28;58.37
35704;BME280;21820;51.112;13.762;2023-09-18T06:28:37;98862.63;;;23.26;58.80
35704;BME280;21820;51.112;13.762;2023-09-18T06:31:03;98864.28;;;23.27;59.28
35704;BME280;21820;51.112;13.762;2023-09-18T06:33:29;98863.50;;;23.27;59.31
35704;BME280;21820;51.112;13.762;2023-09-18T06:35:54;98861.53;;;23.29;59.19
35704;BME280;21820;51.112;13.762;2023-09-18T06:38:19;98857.38;;;23.26;58.74
35704;BME280;21820;51.112;13.762;2023-09-18T06:40:46;98868.75;;;23.27;59.88
35704;BME280;21820;51.112;13.762;2023-09-18T06:43:11;98850.53;;;23.25;59.27
35704;BME280;21820;51.112;13.762;2023-09-18T06:45:36;98845.63;;;23.30;59.19
35704;BME280;21820;51.112;13.762;2023-09-18T06:48:04;98851.19;;;23.27;59.15
35704;BME280;21820;51.112;13.762;2023-09-18T06:50:29;98846.91;;;23.26;59.32
35704;BME280;21820;51.112;13.762;2023-09-18T06:52:55;98835.44;;;23.27;59.23
35704;BME280;21820;51.112;13.762;2023-09-18T06:55:21;98835.31;;;23.29;58.93
35704;BME280;21820;51.112;13.762;2023-09-18T06:57:46;98825.25;;;23.32;58.87
35704;BME280;21820;51.112;13.762;2023-09-18T07:00:14;98826.75;;;23.35;59.47
35704;BME280;21820;51.112;13.762;2023-09-18T07:02:46;98808.56;;;23.25;59.31
35704;BME280;21820;51.112;13.762;2023-09-18T07:05:12;98826.56;;;23.36;59.01
35704;BME280;21820;51.112;13.762;2023-09-18T07:07:37;98821.16;;;23.38;59.17
35704;BME280;21820;51.112;13.762;2023-09-18T07:10:03;98820.97;;;23.39;59.57
35704;BME280;21820;51.112;13.762;2023-09-18T07:12:28;98817.56;;;23.31;58.07
35704;BME280;21820;51.112;13.762;2023-09-18T07:14:53;98814.78;;;23.32;59.16
35704;BME280;21820;51.112;13.762;2023-09-18T07:17:19;98813.63;;;23.35;58.71
35704;BME280;21820;51.112;13.762;2023-09-18T07:19:44;98809.84;;;23.37;59.03
35704;BME280;21820;51.112;13.762;2023-09-18T07:22:09;98805.59;;;23.36;59.77
35704;BME280;21820;51.112;13.762;2023-09-18T07:24:35;98805.41;;;23.38;59.09
35704;BME280;21820;51.112;13.762;2023-09-18T07:27:00;98809.69;;;23.39;59.31
35704;BME280;21820;51.112;13.762;2023-09-18T07:29:26;98815.38;;;23.42;58.99
35704;BME280;21820;51.112;13.762;2023-09-18T07:31:51;98804.91;;;23.42;59.22
35704;BME280;21820;51.112;13.762;2023-09-18T07:34:17;98796.41;;;23.40;59.41
35704;BME280;21820;51.112;13.762;2023-09-18T07:36:43;98802.63;;;23.39;59.43
35704;BME280;21820;51.112;13.762;2023-09-18T07:39:09;98796.41;;;23.40;59.63
35704;BME280;21820;51.112;13.762;2023-09-18T07:41:37;98791.78;;;23.42;58.91
35704;BME280;21820;51.112;13.762;2023-09-18T07:44:02;98783.91;;;23.42;59.29
35704;BME280;21820;51.112;13.762;2023-09-18T07:46:27;98788.38;;;23.42;59.28
35704;BME280;21820;51.112;13.762;2023-09-18T07:48:53;98787.53;;;23.41;59.20
35704;BME280;21820;51.112;13.762;2023-09-18T07:51:18;98778.03;;;23.40;59.42
35704;BME280;21820;51.112;13.762;2023-09-18T07:53:43;98768.69;;;23.38;59.61
35704;BME280;21820;51.112;13.762;2023-09-18T07:56:09;98775.25;;;23.42;59.07
35704;BME280;21820;51.112;13.762;2023-09-18T07:58:35;98759.56;;;23.34;59.07
35704;BME280;21820;51.112;13.762;2023-09-18T08:01:03;98774.41;;;23.41;59.31
35704;BME280;21820;51.112;13.762;2023-09-18T08:03:30;98764.41;;;23.45;60.22
35704;BME280;21820;51.112;13.762;2023-09-18T08:05:55;98776.22;;;23.41;59.92
35704;BME280;21820;51.112;13.762;2023-09-18T08:08:21;98777.03;;;23.41;59.79
35704;BME280;21820;51.112;13.762;2023-09-18T08:10:49;98777.03;;;23.41;58.80
35704;BME280;21820;51.112;13.762;2023-09-18T08:13:14;98763.09;;;23.41;59.37
35704;BME280;21820;51.112;13.762;2023-09-18T08:15:39;98762.94;;;23.42;59.48
35704;BME280;21820;51.112;13.762;2023-09-18T08:18:05;98758.69;;;23.41;59.90
35704;BME280;21820;51.112;13.762;2023-09-18T08:20:30;98760.66;;;23.39;59.07
35704;BME280;21820;51.112;13.762;2023-09-18T08:22:56;98767.38;;;23.42;59.79
35704;BME280;21820;51.112;13.762;2023-09-18T08:25:21;98767.38;;;23.42;59.56
35704;BME280;21820;51.112;13.762;2023-09-18T08:27:47;98764.59;;;23.43;59.90
35704;BME280;21820;51.112;13.762;2023-09-18T08:30:13;98772.44;;;23.43;60.06
35704;BME280;21820;51.112;13.762;2023-09-18T08:32:40;98757.56;;;23.36;59.22
35704;BME280;21820;51.112;13.762;2023-09-18T08:35:08;98773.09;;;23.45;59.74
35704;BME280;21820;51.112;13.762;2023-09-18T08:37:33;98765.84;;;23.47;59.19
35704;BME280;21820;51.112;13.762;2023-09-18T08:39:59;98765.72;;;23.41;59.49
35704;BME280;21820;51.112;13.762;2023-09-18T08:42:35;98757.91;;;23.33;59.14
35704;BME280;21820;51.112;13.762;2023-09-18T08:45:02;98760.69;;;23.31;59.35
35704;BME280;21820;51.112;13.762;2023-09-18T08:47:31;98757.41;;;23.29;59.94
35704;BME280;21820;51.112;13.762;2023-09-18T08:49:57;98749.06;;;23.34;59.62
35704;BME280;21820;51.112;13.762;2023-09-18T08:52:25;98753.13;;;23.36;59.10
35704;BME280;21820;51.112;13.762;2023-09-18T08:54:51;98747.19;;;23.42;60.69
35704;BME280;21820;51.112;13.762;2023-09-18T08:57:16;98739.50;;;23.41;60.29
35704;BME280;21820;51.112;13.762;2023-09-18T08:59:43;98724.94;;;23.38;59.87
35704;BME280;21820;51.112;13.762;2023-09-18T09:02:09;98723.63;;;23.34;59.58
35704;BME280;21820;51.112;13.762;2023-09-18T09:04:37;98730.03;;;23.32;59.92
35704;BME280;21820;51.112;13.762;2023-09-18T09:07:03;98723.63;;;23.34;59.52
35704;BME280;21820;51.112;13.762;2023-09-18T09:09:28;98733.31;;;23.34;59.14
35704;BME280;21820;51.112;13.762;2023-09-18T09:11:56;98725.91;;;23.37;59.99
35704;BME280;21820;51.112;13.762;2023-09-18T09:14:21;98715.25;;;23.39;59.44
35704;BME280;21820;51.112;13.762;2023-09-18T09:16:53;98714.44;;;23.38;59.49
35704;BME280;21820;51.112;13.762;2023-09-18T09:19:28;98719.34;;;23.41;60.94
35704;BME280;21820;51.112;13.762;2023-09-18T09:21:55;98703.59;;;23.41;60.04
35704;BME280;21820;51.112;13.762;2023-09-18T09:24:41;98712.13;;;23.43;61.21
35704;BME280;21820;51.112;13.762;2023-09-18T09:27:07;98715.88;;;23.41;58.65
35704;BME280;21820;51.112;13.762;2023-09-18T09:29:33;98705.25;;;23.34;59.93
35704;BME280;21820;51.112;13.762;2023-09-18T09:32:16;98718.16;;;23.44;61.05
35704;BME280;21820;51.112;13.762;2023-09-18T09:34:43;98711.09;;;23.44;58.89
35704;BME280;21820;51.112;13.762;2023-09-18T09:37:09;98704.91;;;23.45;59.39
35704;BME280;21820;51.112;13.762;2023-09-18T09:39:54;98708.97;;;23.48;60.74
35704;BME280;21820;51.112;13.762;2023-09-18T09:42:20;98717.84;;;23.47;59.49
35704;BME280;21820;51.112;13.762;2023-09-18T09:45:02;98716.84;;;23.48;60.99
35704;BME280;21820;51.112;13.762;2023-09-18T09:47:32;98704.91;;;23.45;60.48
35704;BME280;21820;51.112;13.762;2023-09-18T09:49:58;98701.28;;;23.46;59.71
35704;BME280;21820;51.112;13.762;2023-09-18T09:52:23;98698.66;;;23.46;59.82
35704;BME280;21820;51.112;13.762;2023-09-18T09:54:49;98698.81;;;23.45;59.70
35704;BME280;21820;51.112;13.762;2023-09-18T09:57:14;98701.28;;;23.46;59.00
35704;BME280;21820;51.112;13.762;2023-09-18T09:59:39;98701.97;;;23.40;58.90
35704;BME280;21820;51.112;13.762;2023-09-18T10:02:10;98714.91;;;23.42;59.79
35704;BME280;21820;51.112;13.762;2023-09-18T10:04:40;98719.97;;;23.43;59.11
35704;BME280;21820;51.112;13.762;2023-09-18T10:07:07;98726.84;;;23.44;60.28
35704;BME280;21820;51.112;13.762;2023-09-18T10:09:39;98718.97;;;23.44;60.84
35704;BME280;21820;51.112;13.762;2023-09-18T10:12:11;98729.66;;;23.43;60.80
35704;BME280;21820;51.112;13.762;2023-09-18T10:14:36;98728.50;;;23.45;59.10
35704;BME280;21820;51.112;13.762;2023-09-18T10:17:15;98733.75;;;23.45;60.65
35704;BME280;21820;51.112;13.762;2023-09-18T10:27:45;98716.66;;;23.49;59.74
35704;BME280;21820;51.112;13.762;2023-09-18T10:30:12;98704.53;;;23.48;59.82
35704;BME280;21820;51.112;13.762;2023-09-18T10:32:39;98707.16;;;23.48;59.71
35704;BME280;21820;51.112;13.762;2023-09-18T10:35:07;98707.16;;;23.48;59.35
35704;BME280;21820;51.112;13.762;2023-09-18T10:37:38;98699.47;;;23.47;59.18
35704;BME280;21820;51.112;13.762;2023-09-18T10:40:05;98702.09;;;23.47;59.53
35704;BME280;21820;51.112;13.762;2023-09-18T10:42:34;98697.66;;;23.47;58.73
35704;BME280;21820;51.112;13.762;2023-09-18T10:45:01;98697.66;;;23.47;59.02
35704;BME280;21820;51.112;13.762;2023-09-18T10:47:30;98698.47;;;23.48;58.54
35704;BME280;21820;51.112;13.762;2023-09-18T10:49:56;98692.06;;;23.50;58.12
35704;BME280;21820;51.112;13.762;2023-09-18T10:52:21;98702.72;;;23.49;58.51
35704;BME280;21820;51.112;13.762;2023-09-18T10:54:47;98699.28;;;23.48;58.51
35704;BME280;21820;51.112;13.762;2023-09-18T10:57:12;98694.53;;;23.52;58.39
35704;BME280;21820;51.112;13.762;2023-09-18T10:59:45;98694.69;;;23.50;59.63
35704;BME280;21820;51.112;13.762;2023-09-18T11:02:13;98692.88;;;23.51;58.65
35704;BME280;21820;51.112;13.762;2023-09-18T11:04:41;98694.84;;;23.49;58.43
35704;BME280;21820;51.112;13.762;2023-09-18T11:07:06;98695.66;;;23.49;58.06
35704;BME280;21820;51.112;13.762;2023-09-18T11:09:40;98702.56;;;23.50;60.66
35704;BME280;21820;51.112;13.762;2023-09-18T11:12:06;98697.31;;;23.50;59.05
35704;BME280;21820;51.112;13.762;2023-09-18T11:14:59;98704.38;;;23.50;60.73
35704;BME280;21820;51.112;13.762;2023-09-18T11:20:04;98691.13;;;23.43;60.08
35704;BME280;21820;51.112;13.762;2023-09-18T11:22:38;98695.03;;;23.47;59.70
35704;BME280;21820;51.112;13.762;2023-09-18T11:25:28;98701.75;;;23.50;60.69
35704;BME280;21820;51.112;13.762;2023-09-18T11:27:55;98687.19;;;23.39;59.06
35704;BME280;21820;51.112;13.762;2023-09-18T11:30:23;98700.91;;;23.49;58.55
35704;BME280;21820;51.112;13.762;2023-09-18T11:32:50;98700.09;;;23.49;59.51
35704;BME280;21820;51.112;13.762;2023-09-18T11:35:15;98695.66;;;23.49;58.62
35704;BME280;21820;51.112;13.762;2023-09-18T11:37:44;98702.56;;;23.50;59.17
35704;BME280;21820;51.112;13.762;2023-09-18T11:40:29;98699.94;;;23.50;60.38
35704;BME280;21820;51.112;13.762;2023-09-18T11:45:56;98706.81;;;23.51;59.20
35704;BME280;21820;51.112;13.762;2023-09-18T11:48:25;98713.06;;;23.50;60.33
35704;BME280;21820;51.112;13.762;2023-09-18T11:50:54;98703.53;;;23.49;60.09
35704;BME280;21820;51.112;13.762;2023-09-18T11:53:21;98701.75;;;23.50;59.70
35704;BME280;21820;51.112;13.762;2023-09-18T11:55:48;98706.81;;;23.51;59.73
35704;BME280;21820;51.112;13.762;2023-09-18T11:58:14;98708.25;;;23.54;58.88
35704;BME280;21820;51.112;13.762;2023-09-18T12:00:40;98685.88;;;23.43;59.37
35704;BME280;21820;51.112;13.762;2023-09-18T12:03:19;98701.38;;;23.53;60.51
35704;BME280;21820;51.112;13.762;2023-09-18T12:06:00;98705.81;;;23.52;60.31
35704;BME280;21820;51.112;13.762;2023-09-18T12:08:26;98685.69;;;23.45;59.84
35704;BME280;21820;51.112;13.762;2023-09-18T12:10:54;98675.38;;;23.43;60.63
35704;BME280;21820;51.112;13.762;2023-09-18T12:13:20;98693.34;;;23.54;59.50
35704;BME280;21820;51.112;13.762;2023-09-18T12:15:47;98688.44;;;23.51;60.12
35704;BME280;21820;51.112;13.762;2023-09-18T12:18:14;98690.91;;;23.53;59.56
35704;BME280;21820;51.112;13.762;2023-09-18T12:20:49;98687.28;;;23.54;61.16
35704;BME280;21820;51.112;13.762;2023-09-18T12:23:17;98689.72;;;23.55;60.40
35704;BME280;21820;51.112;13.762;2023-09-18T12:25:47;98682.84;;;23.54;59.41
35704;BME280;21820;51.112;13.762;2023-09-18T12:28:14;98684.81;;;23.52;59.14
35704;BME280;21820;51.112;13.762;2023-09-18T12:30:43;98687.44;;;23.52;59.27
35704;BME280;21820;51.112;13.762;2023-09-18T12:33:12;98685.66;;;23.53;60.35
35704;BME280;21820;51.112;13.762;2023-09-18T12:35:40;98684.47;;;23.55;59.94
35704;BME280;21820;51.112;13.762;2023-09-18T12:38:17;98689.72;;;23.55;60.65
35704;BME280;21820;51.112;13.762;2023-09-18T12:40:49;98676.03;;;23.45;59.63
35704;BME280;21820;51.112;13.762;2023-09-18T12:43:16;98688.75;;;23.56;60.01
35704;BME280;21820;51.112;13.762;2023-09-18T12:45:43;98696.63;;;23.56;59.96
35704;BME280;21820;51.112;13.762;2023-09-18T12:48:09;98692.34;;;23.55;59.99
35704;BME280;21820;51.112;13.762;2023-09-18T12:50:35;98705.31;;;23.57;60.50
35704;BME280;21820;51.112;13.762;2023-09-18T12:53:11;98690.41;;;23.49;60.78
35704;BME280;21820;51.112;13.762;2023-09-18T12:55:37;98707.13;;;23.56;60.15
35704;BME280;21820;51.112;13.762;2023-09-18T12:58:03;98702.69;;;23.57;59.79
35704;BME280;21820;51.112;13.762;2023-09-18T13:00:33;98687.31;;;23.46;60.07
35704;BME280;21820;51.112;13.762;2023-09-18T13:02:59;98702.22;;;23.53;59.75
35704;BME280;21820;51.112;13.762;2023-09-18T13:05:25;98706.28;;;23.56;60.58
35704;BME280;21820;51.112;13.762;2023-09-18T13:07:52;98702.69;;;23.57;60.23